Here is the Quick Look data you requested

The Data originates at the National Weather Service, and is made available here by the UAlbany Department of Atmospheric and Environmental Sciences

Surface Observations

KACK 220453Z AUTO 23007KT 6SM BR CLR 20/20 A3011 RMK AO2 SLP195 T02000200
 402720161=
KAQW 220452Z AUTO VRB04KT 10SM CLR 19/18 A3006 RMK AO2 SLP177 T01940183
 402780128=
KBAF 220453Z AUTO 16003KT 10SM CLR 21/19 A3007 RMK AO2 SLP178 T02110189
 403060128 TSNO=
KBED 220456Z AUTO VRB03KT 10SM CLR 21/16 A3004 RMK AO2 SLP183 T02110161
 403000144=
KBOS 220454Z 23010KT 10SM CLR 23/18 A3005 RMK AO2 SLP176 T02330178 403060206=
KBVY 220453Z AUTO 23004KT 10SM CLR 22/18 A3004 RMK AO2 SLP167 T02220178
 403060156=
KCEF 220458Z AUTO 17005KT 10SM CLR 21/18 A3006 RMK AO2 SLP184 T02090178
 403020122=
KCQX 220452Z AUTO 24007KT 10SM CLR 22/21 A3010 RMK AO2 SLP193 T02220211
 402780172=
KEWB 220453Z AUTO 22003KT 10SM CLR 19/18 A3007 RMK AO2 SLP184 T01940178
 402940133=
KFIT 220452Z AUTO 25008KT 10SM CLR 25/19 A3006 RMK AO2 SLP177 T02500189
 403110156=
KFMH 220455Z AUTO 24004G10KT 10SM CLR 21/20 A3010 RMK AO2 FZRANO=
KHYA 220456Z AUTO 23006KT 10SM CLR 22/20 A3007 RMK AO2 SLP184 T02170200
 402780150=
KLWM 220454Z AUTO 20005KT 10SM CLR 23/18 A3006 RMK AO2 SLP179 T02280178
 403110172=
KMQE 220456Z AUTO 22011KT 22/17 A3007 RMK AO1 SLP189 T02170167 402940172=
KMVY 220453Z AUTO 24006KT 9SM CLR 21/20 A3010 RMK AO2 SLP191 T02110200
 402830139=
KORE 220452Z AUTO 00000KT 8SM CLR 18/18 A3008 RMK AO2 SLP183 T01780178
 402890122 TSNO=
KORH 220454Z AUTO 24009KT 10SM CLR 20/17 A3009 RMK AO2 SLP184 T02000167
 402780172=
KOWD 220453Z AUTO 16003KT 10SM CLR 21/18 A3006 RMK AO2 SLP178 T02060178
 403060111=
KPSF 220454Z AUTO 26006KT 10SM CLR 21/19 A3008 RMK AO2 SLP159 T02060189
 402720122=
KPVC 220456Z AUTO 21007KT 10SM CLR 21/18 A3008 RMK AO2 SLP184 T02060183
 402780172=
KPYM 220452Z AUTO 20003KT 10SM CLR 20/17 A3008 RMK AO2 SLP186 T02000167
 402940139 TSNO=
KTAN 220452Z AUTO 22003KT 10SM CLR 18/16 A3007 RMK AO2 SLP182 T01780161
 403000117=